Newtown, Indiana
Current Conditions -  °F | °C
As of 4:54 AM on Monday 22 Dec 2014 (Local Time) from KLAF Reporting Station
Overcast Overcast  
Wind Chill: -5°   Ceiling: 10000
Heat Index: -1°   Visibility: 7mi
Dew Point: -3°   Wind: 7mph
Humidity: 85%   Direction: 110°ESE
Pressure: 29.99"   Gusts: NA
Location:  40.2°N, 87.15°W
Report Text: KLAF 220954Z AUTO 11006KT 7SM OVC100 M01/M03 A2999 RMK AO2 SLP159 T10111033 TSNO
Loading
Personal Weather Stations






























Interactive Weather Map New forecast layout! Learn more

10-Day Weather Forecast

Advertisements
Track Severe Weather on mobile